sensor_id;sensor_type;location;lat;lon;timestamp;P1;durP1;ratioP1;P2;durP2;ratioP2
8466;SDS011;4270;48.148;11.648;2023-07-13T00:01:49;3.70;;;3.30;;
8466;SDS011;4270;48.148;11.648;2023-07-13T00:04:15;4.67;;;3.50;;
8466;SDS011;4270;48.148;11.648;2023-07-13T00:06:41;4.53;;;3.80;;
8466;SDS011;4270;48.148;11.648;2023-07-13T00:09:09;3.63;;;3.00;;
8466;SDS011;4270;48.148;11.648;2023-07-13T00:11:35;6.30;;;3.53;;
8466;SDS011;4270;48.148;11.648;2023-07-13T00:14:00;4.00;;;2.90;;
8466;SDS011;4270;48.148;11.648;2023-07-13T00:16:25;3.67;;;3.27;;
8466;SDS011;4270;48.148;11.648;2023-07-13T00:18:50;4.77;;;3.47;;
8466;SDS011;4270;48.148;11.648;2023-07-13T00:21:15;3.57;;;2.97;;
8466;SDS011;4270;48.148;11.648;2023-07-13T00:23:41;3.60;;;3.30;;
8466;SDS011;4270;48.148;11.648;2023-07-13T00:26:08;4.37;;;3.70;;
8466;SDS011;4270;48.148;11.648;2023-07-13T00:28:33;4.80;;;3.00;;
8466;SDS011;4270;48.148;11.648;2023-07-13T00:30:59;5.67;;;2.77;;
8466;SDS011;4270;48.148;11.648;2023-07-13T00:33:25;5.70;;;3.43;;
8466;SDS011;4270;48.148;11.648;2023-07-13T00:35:50;3.57;;;2.63;;
8466;SDS011;4270;48.148;11.648;2023-07-13T00:38:15;3.40;;;3.10;;
8466;SDS011;4270;48.148;11.648;2023-07-13T00:40:41;4.13;;;3.17;;
8466;SDS011;4270;48.148;11.648;2023-07-13T00:43:16;4.73;;;3.30;;
8466;SDS011;4270;48.148;11.648;2023-07-13T00:48:07;3.63;;;3.13;;
8466;SDS011;4270;48.148;11.648;2023-07-13T00:50:32;5.00;;;3.30;;
8466;SDS011;4270;48.148;11.648;2023-07-13T00:52:57;3.23;;;2.93;;
8466;SDS011;4270;48.148;11.648;2023-07-13T00:55:23;4.93;;;3.10;;
8466;SDS011;4270;48.148;11.648;2023-07-13T00:57:48;4.57;;;2.60;;
8466;SDS011;4270;48.148;11.648;2023-07-13T01:00:14;3.30;;;2.60;;
8466;SDS011;4270;48.148;11.648;2023-07-13T01:02:40;3.60;;;3.30;;
8466;SDS011;4270;48.148;11.648;2023-07-13T01:05:10;3.20;;;2.80;;
8466;SDS011;4270;48.148;11.648;2023-07-13T01:07:36;5.63;;;3.53;;
8466;SDS011;4270;48.148;11.648;2023-07-13T01:10:01;8.63;;;3.80;;
8466;SDS011;4270;48.148;11.648;2023-07-13T01:12:26;2.97;;;2.67;;
8466;SDS011;4270;48.148;11.648;2023-07-13T01:14:56;5.03;;;2.80;;
8466;SDS011;4270;48.148;11.648;2023-07-13T01:17:22;4.20;;;3.20;;
8466;SDS011;4270;48.148;11.648;2023-07-13T01:19:47;3.37;;;3.07;;
8466;SDS011;4270;48.148;11.648;2023-07-13T01:22:13;4.70;;;2.60;;
8466;SDS011;4270;48.148;11.648;2023-07-13T01:24:39;4.40;;;3.20;;
8466;SDS011;4270;48.148;11.648;2023-07-13T01:27:05;3.97;;;3.10;;
8466;SDS011;4270;48.148;11.648;2023-07-13T01:29:31;3.47;;;2.60;;
8466;SDS011;4270;48.148;11.648;2023-07-13T01:31:57;3.47;;;3.03;;
8466;SDS011;4270;48.148;11.648;2023-07-13T01:34:22;6.43;;;3.00;;
8466;SDS011;4270;48.148;11.648;2023-07-13T01:36:47;3.67;;;3.37;;
8466;SDS011;4270;48.148;11.648;2023-07-13T01:39:13;7.90;;;3.13;;
8466;SDS011;4270;48.148;11.648;2023-07-13T01:41:39;3.53;;;3.07;;
8466;SDS011;4270;48.148;11.648;2023-07-13T01:44:04;5.27;;;2.90;;
8466;SDS011;4270;48.148;11.648;2023-07-13T01:46:29;4.20;;;3.03;;
8466;SDS011;4270;48.148;11.648;2023-07-13T01:48:55;4.50;;;3.47;;
8466;SDS011;4270;48.148;11.648;2023-07-13T01:51:20;4.40;;;3.40;;
8466;SDS011;4270;48.148;11.648;2023-07-13T01:53:45;4.40;;;3.27;;
8466;SDS011;4270;48.148;11.648;2023-07-13T01:56:11;3.53;;;3.23;;
8466;SDS011;4270;48.148;11.648;2023-07-13T01:58:36;7.03;;;3.10;;
8466;SDS011;4270;48.148;11.648;2023-07-13T02:01:01;3.93;;;3.30;;
8466;SDS011;4270;48.148;11.648;2023-07-13T02:03:26;3.47;;;3.10;;
8466;SDS011;4270;48.148;11.648;2023-07-13T02:05:51;3.43;;;3.13;;
8466;SDS011;4270;48.148;11.648;2023-07-13T02:08:16;4.97;;;3.00;;
8466;SDS011;4270;48.148;11.648;2023-07-13T02:10:42;3.30;;;2.87;;
8466;SDS011;4270;48.148;11.648;2023-07-13T02:13:07;4.20;;;3.13;;
8466;SDS011;4270;48.148;11.648;2023-07-13T02:15:32;4.70;;;3.10;;
8466;SDS011;4270;48.148;11.648;2023-07-13T02:17:58;5.97;;;3.43;;
8466;SDS011;4270;48.148;11.648;2023-07-13T02:20:23;4.57;;;3.70;;
8466;SDS011;4270;48.148;11.648;2023-07-13T02:22:48;5.00;;;3.27;;
8466;SDS011;4270;48.148;11.648;2023-07-13T02:25:13;4.53;;;3.30;;
8466;SDS011;4270;48.148;11.648;2023-07-13T02:27:39;4.37;;;3.47;;
8466;SDS011;4270;48.148;11.648;2023-07-13T02:30:04;6.73;;;3.57;;
8466;SDS011;4270;48.148;11.648;2023-07-13T02:32:29;4.50;;;3.40;;
8466;SDS011;4270;48.148;11.648;2023-07-13T02:34:55;7.67;;;3.60;;
8466;SDS011;4270;48.148;11.648;2023-07-13T02:37:20;3.93;;;3.50;;
8466;SDS011;4270;48.148;11.648;2023-07-13T02:39:46;4.60;;;3.17;;
8466;SDS011;4270;48.148;11.648;2023-07-13T02:42:12;5.33;;;3.70;;
8466;SDS011;4270;48.148;11.648;2023-07-13T02:44:38;4.53;;;4.00;;
8466;SDS011;4270;48.148;11.648;2023-07-13T02:47:03;3.40;;;3.10;;
8466;SDS011;4270;48.148;11.648;2023-07-13T02:49:28;4.27;;;3.83;;
8466;SDS011;4270;48.148;11.648;2023-07-13T02:51:53;5.23;;;3.60;;
8466;SDS011;4270;48.148;11.648;2023-07-13T02:54:18;4.80;;;3.93;;
8466;SDS011;4270;48.148;11.648;2023-07-13T02:56:44;5.57;;;4.87;;
8466;SDS011;4270;48.148;11.648;2023-07-13T02:59:09;8.03;;;4.80;;
8466;SDS011;4270;48.148;11.648;2023-07-13T03:01:34;7.73;;;4.93;;
8466;SDS011;4270;48.148;11.648;2023-07-13T03:04:00;7.60;;;4.70;;
8466;SDS011;4270;48.148;11.648;2023-07-13T03:06:25;9.00;;;4.93;;
8466;SDS011;4270;48.148;11.648;2023-07-13T03:08:55;7.13;;;4.77;;
8466;SDS011;4270;48.148;11.648;2023-07-13T03:11:20;8.27;;;5.30;;
8466;SDS011;4270;48.148;11.648;2023-07-13T03:13:46;5.80;;;4.97;;
8466;SDS011;4270;48.148;11.648;2023-07-13T03:16:11;9.00;;;5.03;;
8466;SDS011;4270;48.148;11.648;2023-07-13T03:18:37;6.50;;;4.87;;
8466;SDS011;4270;48.148;11.648;2023-07-13T03:21:02;6.50;;;5.17;;
8466;SDS011;4270;48.148;11.648;2023-07-13T03:23:27;5.13;;;4.37;;
8466;SDS011;4270;48.148;11.648;2023-07-13T03:26:08;5.60;;;4.33;;
8466;SDS011;4270;48.148;11.648;2023-07-13T03:28:34;6.27;;;4.60;;
8466;SDS011;4270;48.148;11.648;2023-07-13T03:31:09;6.23;;;3.80;;
8466;SDS011;4270;48.148;11.648;2023-07-13T03:33:35;7.30;;;4.00;;
8466;SDS011;4270;48.148;11.648;2023-07-13T03:36:01;5.60;;;4.20;;
8466;SDS011;4270;48.148;11.648;2023-07-13T03:38:26;4.43;;;4.00;;
8466;SDS011;4270;48.148;11.648;2023-07-13T03:40:52;6.67;;;4.50;;
8466;SDS011;4270;48.148;11.648;2023-07-13T03:43:17;6.80;;;4.27;;
8466;SDS011;4270;48.148;11.648;2023-07-13T03:45:42;5.33;;;4.70;;
8466;SDS011;4270;48.148;11.648;2023-07-13T03:48:08;5.87;;;3.90;;
8466;SDS011;4270;48.148;11.648;2023-07-13T03:50:33;5.73;;;3.90;;
8466;SDS011;4270;48.148;11.648;2023-07-13T03:52:59;5.40;;;3.73;;
8466;SDS011;4270;48.148;11.648;2023-07-13T03:55:24;5.80;;;4.03;;
8466;SDS011;4270;48.148;11.648;2023-07-13T03:57:54;5.57;;;4.10;;
8466;SDS011;4270;48.148;11.648;2023-07-13T04:00:22;5.47;;;4.47;;
8466;SDS011;4270;48.148;11.648;2023-07-13T04:02:47;5.57;;;4.33;;
8466;SDS011;4270;48.148;11.648;2023-07-13T04:05:14;8.40;;;3.30;;
8466;SDS011;4270;48.148;11.648;2023-07-13T04:07:39;9.63;;;4.40;;
8466;SDS011;4270;48.148;11.648;2023-07-13T04:10:05;6.70;;;4.40;;
8466;SDS011;4270;48.148;11.648;2023-07-13T04:12:30;4.73;;;3.70;;
8466;SDS011;4270;48.148;11.648;2023-07-13T04:14:55;7.20;;;4.70;;
8466;SDS011;4270;48.148;11.648;2023-07-13T04:17:20;6.20;;;3.90;;
8466;SDS011;4270;48.148;11.648;2023-07-13T04:19:45;5.27;;;3.63;;
8466;SDS011;4270;48.148;11.648;2023-07-13T04:22:11;5.57;;;4.27;;
8466;SDS011;4270;48.148;11.648;2023-07-13T04:24:36;5.23;;;4.20;;
8466;SDS011;4270;48.148;11.648;2023-07-13T04:27:02;5.33;;;4.10;;
8466;SDS011;4270;48.148;11.648;2023-07-13T04:29:28;4.90;;;4.27;;
8466;SDS011;4270;48.148;11.648;2023-07-13T04:31:53;6.70;;;4.23;;
8466;SDS011;4270;48.148;11.648;2023-07-13T04:34:18;4.73;;;4.10;;
8466;SDS011;4270;48.148;11.648;2023-07-13T04:36:43;7.13;;;4.30;;
8466;SDS011;4270;48.148;11.648;2023-07-13T04:39:08;5.00;;;4.00;;
8466;SDS011;4270;48.148;11.648;2023-07-13T04:41:33;4.33;;;3.27;;
8466;SDS011;4270;48.148;11.648;2023-07-13T04:43:59;5.43;;;4.10;;
8466;SDS011;4270;48.148;11.648;2023-07-13T04:46:24;8.57;;;3.30;;
8466;SDS011;4270;48.148;11.648;2023-07-13T04:48:49;5.90;;;3.50;;
8466;SDS011;4270;48.148;11.648;2023-07-13T04:51:16;4.40;;;3.53;;
8466;SDS011;4270;48.148;11.648;2023-07-13T04:53:41;7.30;;;4.27;;
8466;SDS011;4270;48.148;11.648;2023-07-13T04:56:06;6.27;;;3.33;;
8466;SDS011;4270;48.148;11.648;2023-07-13T04:58:31;4.30;;;3.60;;
8466;SDS011;4270;48.148;11.648;2023-07-13T05:01:03;6.77;;;4.03;;
8466;SDS011;4270;48.148;11.648;2023-07-13T05:03:29;4.93;;;3.60;;
8466;SDS011;4270;48.148;11.648;2023-07-13T05:05:58;3.90;;;3.50;;
8466;SDS011;4270;48.148;11.648;2023-07-13T05:08:23;5.27;;;3.57;;
8466;SDS011;4270;48.148;11.648;2023-07-13T05:10:49;4.83;;;3.13;;
8466;SDS011;4270;48.148;11.648;2023-07-13T05:13:14;4.60;;;3.40;;
8466;SDS011;4270;48.148;11.648;2023-07-13T05:15:40;5.30;;;3.00;;
8466;SDS011;4270;48.148;11.648;2023-07-13T05:18:05;3.40;;;3.10;;
8466;SDS011;4270;48.148;11.648;2023-07-13T05:20:30;4.43;;;3.03;;
8466;SDS011;4270;48.148;11.648;2023-07-13T05:22:55;4.33;;;3.47;;
8466;SDS011;4270;48.148;11.648;2023-07-13T05:25:21;3.37;;;3.07;;
8466;SDS011;4270;48.148;11.648;2023-07-13T05:27:46;4.43;;;2.93;;
8466;SDS011;4270;48.148;11.648;2023-07-13T05:30:12;7.40;;;3.63;;
8466;SDS011;4270;48.148;11.648;2023-07-13T05:32:37;3.67;;;3.10;;
8466;SDS011;4270;48.148;11.648;2023-07-13T05:35:02;6.33;;;3.93;;
8466;SDS011;4270;48.148;11.648;2023-07-13T05:37:28;7.17;;;3.77;;
8466;SDS011;4270;48.148;11.648;2023-07-13T05:39:53;4.57;;;3.40;;
8466;SDS011;4270;48.148;11.648;2023-07-13T05:42:18;4.13;;;3.30;;
8466;SDS011;4270;48.148;11.648;2023-07-13T05:44:43;4.13;;;3.10;;
8466;SDS011;4270;48.148;11.648;2023-07-13T05:47:08;5.00;;;3.10;;
8466;SDS011;4270;48.148;11.648;2023-07-13T05:49:33;5.10;;;3.53;;
8466;SDS011;4270;48.148;11.648;2023-07-13T05:51:59;6.53;;;3.50;;
8466;SDS011;4270;48.148;11.648;2023-07-13T05:54:24;4.53;;;3.67;;
8466;SDS011;4270;48.148;11.648;2023-07-13T05:56:49;4.30;;;2.73;;
8466;SDS011;4270;48.148;11.648;2023-07-13T05:59:14;3.40;;;3.10;;
8466;SDS011;4270;48.148;11.648;2023-07-13T06:01:40;3.93;;;3.10;;
8466;SDS011;4270;48.148;11.648;2023-07-13T06:04:05;7.80;;;4.37;;
8466;SDS011;4270;48.148;11.648;2023-07-13T06:06:31;3.90;;;3.30;;
8466;SDS011;4270;48.148;11.648;2023-07-13T06:08:56;4.07;;;3.10;;
8466;SDS011;4270;48.148;11.648;2023-07-13T06:11:23;5.50;;;3.47;;
8466;SDS011;4270;48.148;11.648;2023-07-13T06:13:48;4.60;;;3.10;;
8466;SDS011;4270;48.148;11.648;2023-07-13T06:16:13;3.93;;;3.40;;
8466;SDS011;4270;48.148;11.648;2023-07-13T06:18:39;5.43;;;3.80;;
8466;SDS011;4270;48.148;11.648;2023-07-13T06:21:08;3.87;;;3.30;;
8466;SDS011;4270;48.148;11.648;2023-07-13T06:23:33;4.83;;;3.00;;
8466;SDS011;4270;48.148;11.648;2023-07-13T06:25:58;5.23;;;3.23;;
8466;SDS011;4270;48.148;11.648;2023-07-13T06:28:23;3.57;;;3.23;;
8466;SDS011;4270;48.148;11.648;2023-07-13T06:30:49;5.70;;;3.30;;
8466;SDS011;4270;48.148;11.648;2023-07-13T06:33:14;3.80;;;3.10;;
8466;SDS011;4270;48.148;11.648;2023-07-13T06:35:39;3.80;;;2.70;;
8466;SDS011;4270;48.148;11.648;2023-07-13T06:38:04;5.03;;;3.50;;
8466;SDS011;4270;48.148;11.648;2023-07-13T06:40:29;4.07;;;2.70;;
8466;SDS011;4270;48.148;11.648;2023-07-13T06:42:55;3.70;;;3.00;;
8466;SDS011;4270;48.148;11.648;2023-07-13T06:45:20;3.70;;;3.20;;
8466;SDS011;4270;48.148;11.648;2023-07-13T06:47:45;4.60;;;3.13;;
8466;SDS011;4270;48.148;11.648;2023-07-13T06:50:11;5.87;;;2.70;;
8466;SDS011;4270;48.148;11.648;2023-07-13T06:52:36;4.10;;;3.17;;
8466;SDS011;4270;48.148;11.648;2023-07-13T06:55:01;5.97;;;2.97;;
8466;SDS011;4270;48.148;11.648;2023-07-13T06:57:26;5.40;;;2.87;;
8466;SDS011;4270;48.148;11.648;2023-07-13T06:59:52;4.70;;;3.10;;
8466;SDS011;4270;48.148;11.648;2023-07-13T07:02:17;4.13;;;2.80;;
8466;SDS011;4270;48.148;11.648;2023-07-13T07:04:42;5.10;;;2.97;;
8466;SDS011;4270;48.148;11.648;2023-07-13T07:07:08;2.87;;;2.60;;
8466;SDS011;4270;48.148;11.648;2023-07-13T07:09:33;6.27;;;2.77;;
8466;SDS011;4270;48.148;11.648;2023-07-13T07:11:58;5.80;;;3.00;;
8466;SDS011;4270;48.148;11.648;2023-07-13T07:14:23;3.97;;;2.40;;
8466;SDS011;4270;48.148;11.648;2023-07-13T07:16:49;4.43;;;3.10;;
8466;SDS011;4270;48.148;11.648;2023-07-13T07:19:15;3.70;;;2.80;;
8466;SDS011;4270;48.148;11.648;2023-07-13T07:21:40;4.30;;;2.60;;
8466;SDS011;4270;48.148;11.648;2023-07-13T07:24:05;2.20;;;2.00;;
8466;SDS011;4270;48.148;11.648;2023-07-13T07:26:31;6.93;;;2.67;;
8466;SDS011;4270;48.148;11.648;2023-07-13T07:28:56;3.27;;;2.70;;
8466;SDS011;4270;48.148;11.648;2023-07-13T07:31:21;6.07;;;2.57;;
8466;SDS011;4270;48.148;11.648;2023-07-13T07:33:46;3.17;;;2.50;;
8466;SDS011;4270;48.148;11.648;2023-07-13T07:36:11;5.40;;;2.80;;
8466;SDS011;4270;48.148;11.648;2023-07-13T07:38:37;4.43;;;2.50;;
8466;SDS011;4270;48.148;11.648;2023-07-13T07:41:02;6.53;;;3.40;;
8466;SDS011;4270;48.148;11.648;2023-07-13T07:43:28;4.07;;;2.90;;
8466;SDS011;4270;48.148;11.648;2023-07-13T07:45:53;4.53;;;2.00;;
8466;SDS011;4270;48.148;11.648;2023-07-13T07:48:18;4.90;;;2.93;;
8466;SDS011;4270;48.148;11.648;2023-07-13T07:50:43;3.40;;;2.50;;
8466;SDS011;4270;48.148;11.648;2023-07-13T07:53:08;3.60;;;2.60;;
8466;SDS011;4270;48.148;11.648;2023-07-13T07:55:35;6.50;;;2.80;;
8466;SDS011;4270;48.148;11.648;2023-07-13T07:58:01;3.27;;;2.70;;
8466;SDS011;4270;48.148;11.648;2023-07-13T08:00:26;5.43;;;2.43;;
8466;SDS011;4270;48.148;11.648;2023-07-13T08:02:52;4.63;;;3.03;;
8466;SDS011;4270;48.148;11.648;2023-07-13T08:05:17;5.97;;;2.60;;
8466;SDS011;4270;48.148;11.648;2023-07-13T08:07:43;3.53;;;2.40;;
8466;SDS011;4270;48.148;11.648;2023-07-13T08:10:08;4.17;;;2.57;;
8466;SDS011;4270;48.148;11.648;2023-07-13T08:12:34;5.20;;;2.63;;
8466;SDS011;4270;48.148;11.648;2023-07-13T08:14:59;3.17;;;2.67;;
8466;SDS011;4270;48.148;11.648;2023-07-13T08:17:25;3.90;;;2.40;;
8466;SDS011;4270;48.148;11.648;2023-07-13T08:19:50;5.57;;;2.70;;
8466;SDS011;4270;48.148;11.648;2023-07-13T08:22:16;2.67;;;2.47;;
8466;SDS011;4270;48.148;11.648;2023-07-13T08:24:41;3.00;;;2.60;;
8466;SDS011;4270;48.148;11.648;2023-07-13T08:27:07;3.70;;;2.33;;
8466;SDS011;4270;48.148;11.648;2023-07-13T08:29:32;8.93;;;2.80;;
8466;SDS011;4270;48.148;11.648;2023-07-13T08:31:58;7.00;;;2.70;;
8466;SDS011;4270;48.148;11.648;2023-07-13T08:34:23;3.87;;;2.50;;
8466;SDS011;4270;48.148;11.648;2023-07-13T08:36:48;6.37;;;3.20;;
8466;SDS011;4270;48.148;11.648;2023-07-13T08:39:13;7.13;;;2.70;;
8466;SDS011;4270;48.148;11.648;2023-07-13T08:41:38;4.10;;;2.50;;
8466;SDS011;4270;48.148;11.648;2023-07-13T08:44:04;2.53;;;2.30;;
8466;SDS011;4270;48.148;11.648;2023-07-13T08:46:33;4.57;;;2.97;;
8466;SDS011;4270;48.148;11.648;2023-07-13T08:49:01;3.17;;;2.73;;
8466;SDS011;4270;48.148;11.648;2023-07-13T08:54:03;3.87;;;2.20;;
8466;SDS011;4270;48.148;11.648;2023-07-13T08:56:30;5.00;;;2.57;;
8466;SDS011;4270;48.148;11.648;2023-07-13T08:58:57;4.33;;;2.60;;
8466;SDS011;4270;48.148;11.648;2023-07-13T09:01:31;3.80;;;2.40;;
8466;SDS011;4270;48.148;11.648;2023-07-13T09:04:20;5.87;;;2.53;;
8466;SDS011;4270;48.148;11.648;2023-07-13T09:06:56;6.13;;;2.53;;
8466;SDS011;4270;48.148;11.648;2023-07-13T09:14:33;8.90;;;2.40;;
8466;SDS011;4270;48.148;11.648;2023-07-13T09:17:00;5.23;;;2.23;;
8466;SDS011;4270;48.148;11.648;2023-07-13T09:19:28;2.30;;;1.90;;
8466;SDS011;4270;48.148;11.648;2023-07-13T09:21:55;2.77;;;1.80;;
8466;SDS011;4270;48.148;11.648;2023-07-13T09:24:27;2.53;;;1.60;;
8466;SDS011;4270;48.148;11.648;2023-07-13T09:26:53;2.57;;;1.97;;
8466;SDS011;4270;48.148;11.648;2023-07-13T09:29:26;7.60;;;1.97;;
8466;SDS011;4270;48.148;11.648;2023-07-13T09:31:53;5.80;;;2.10;;
8466;SDS011;4270;48.148;11.648;2023-07-13T09:34:19;5.97;;;2.40;;
8466;SDS011;4270;48.148;11.648;2023-07-13T09:36:44;2.70;;;1.63;;
8466;SDS011;4270;48.148;11.648;2023-07-13T09:39:15;4.63;;;1.90;;
8466;SDS011;4270;48.148;11.648;2023-07-13T09:44:09;5.65;;;2.03;;
8466;SDS011;4270;48.148;11.648;2023-07-13T09:46:36;2.67;;;1.87;;
8466;SDS011;4270;48.148;11.648;2023-07-13T09:49:01;5.60;;;1.97;;
8466;SDS011;4270;48.148;11.648;2023-07-13T09:51:26;3.30;;;1.70;;
8466;SDS011;4270;48.148;11.648;2023-07-13T09:53:51;3.53;;;1.80;;
8466;SDS011;4270;48.148;11.648;2023-07-13T09:56:24;10.50;;;3.43;;
8466;SDS011;4270;48.148;11.648;2023-07-13T09:58:49;4.10;;;1.77;;
8466;SDS011;4270;48.148;11.648;2023-07-13T10:01:14;6.90;;;2.00;;
8466;SDS011;4270;48.148;11.648;2023-07-13T10:03:42;4.83;;;1.73;;
8466;SDS011;4270;48.148;11.648;2023-07-13T10:06:17;2.10;;;1.60;;
8466;SDS011;4270;48.148;11.648;2023-07-13T10:08:44;4.20;;;1.97;;
8466;SDS011;4270;48.148;11.648;2023-07-13T10:11:17;4.07;;;1.80;;
8466;SDS011;4270;48.148;11.648;2023-07-13T10:13:46;2.70;;;1.67;;
8466;SDS011;4270;48.148;11.648;2023-07-13T10:16:14;3.70;;;1.67;;
8466;SDS011;4270;48.148;11.648;2023-07-13T10:18:50;2.70;;;1.77;;
8466;SDS011;4270;48.148;11.648;2023-07-13T10:21:17;3.97;;;1.70;;
8466;SDS011;4270;48.148;11.648;2023-07-13T10:23:43;3.97;;;2.07;;
8466;SDS011;4270;48.148;11.648;2023-07-13T10:26:12;2.17;;;1.63;;
8466;SDS011;4270;48.148;11.648;2023-07-13T10:28:38;1.83;;;1.63;;
8466;SDS011;4270;48.148;11.648;2023-07-13T10:31:06;4.80;;;1.70;;
8466;SDS011;4270;48.148;11.648;2023-07-13T10:33:35;2.10;;;1.80;;
8466;SDS011;4270;48.148;11.648;2023-07-13T10:36:10;2.73;;;1.47;;
8466;SDS011;4270;48.148;11.648;2023-07-13T10:38:37;2.67;;;1.70;;
8466;SDS011;4270;48.148;11.648;2023-07-13T10:41:07;3.00;;;1.80;;
8466;SDS011;4270;48.148;11.648;2023-07-13T10:43:39;3.73;;;1.50;;
8466;SDS011;4270;48.148;11.648;2023-07-13T10:46:06;3.13;;;1.70;;
8466;SDS011;4270;48.148;11.648;2023-07-13T10:48:33;2.40;;;1.90;;
8466;SDS011;4270;48.148;11.648;2023-07-13T10:50:59;2.30;;;1.70;;
8466;SDS011;4270;48.148;11.648;2023-07-13T10:53:30;2.57;;;1.60;;
8466;SDS011;4270;48.148;11.648;2023-07-13T10:55:58;1.80;;;1.60;;
8466;SDS011;4270;48.148;11.648;2023-07-13T10:58:29;3.33;;;1.50;;
8466;SDS011;4270;48.148;11.648;2023-07-13T11:01:17;3.43;;;1.40;;
8466;SDS011;4270;48.148;11.648;2023-07-13T11:06:42;2.93;;;1.70;;
8466;SDS011;4270;48.148;11.648;2023-07-13T11:11:46;4.30;;;2.27;;
8466;SDS011;4270;48.148;11.648;2023-07-13T11:14:28;4.30;;;2.03;;
8466;SDS011;4270;48.148;11.648;2023-07-13T11:16:54;3.93;;;2.10;;
8466;SDS011;4270;48.148;11.648;2023-07-13T11:22:01;6.23;;;1.80;;
8466;SDS011;4270;48.148;11.648;2023-07-13T11:24:47;3.60;;;2.00;;
8466;SDS011;4270;48.148;11.648;2023-07-13T11:27:25;4.57;;;2.07;;
8466;SDS011;4270;48.148;11.648;2023-07-13T11:29:52;4.90;;;2.10;;
8466;SDS011;4270;48.148;11.648;2023-07-13T11:32:31;4.40;;;2.63;;
8466;SDS011;4270;48.148;11.648;2023-07-13T11:34:57;3.70;;;2.07;;
8466;SDS011;4270;48.148;11.648;2023-07-13T11:37:22;4.03;;;1.90;;
8466;SDS011;4270;48.148;11.648;2023-07-13T11:39:48;6.03;;;1.87;;
8466;SDS011;4270;48.148;11.648;2023-07-13T11:42:16;1.80;;;1.57;;
8466;SDS011;4270;48.148;11.648;2023-07-13T11:44:43;2.57;;;1.60;;
8466;SDS011;4270;48.148;11.648;2023-07-13T11:47:10;1.50;;;1.40;;
8466;SDS011;4270;48.148;11.648;2023-07-13T11:49:42;2.10;;;1.67;;
8466;SDS011;4270;48.148;11.648;2023-07-13T11:52:11;6.00;;;2.27;;
8466;SDS011;4270;48.148;11.648;2023-07-13T11:54:49;3.00;;;1.80;;
8466;SDS011;4270;48.148;11.648;2023-07-13T11:57:26;3.00;;;2.20;;
8466;SDS011;4270;48.148;11.648;2023-07-13T11:59:53;5.20;;;2.10;;
8466;SDS011;4270;48.148;11.648;2023-07-13T12:02:26;3.40;;;2.00;;
8466;SDS011;4270;48.148;11.648;2023-07-13T12:04:53;2.67;;;2.03;;
8466;SDS011;4270;48.148;11.648;2023-07-13T12:07:18;2.63;;;1.80;;
8466;SDS011;4270;48.148;11.648;2023-07-13T12:09:44;2.60;;;1.40;;
8466;SDS011;4270;48.148;11.648;2023-07-13T12:12:13;3.00;;;1.53;;
8466;SDS011;4270;48.148;11.648;2023-07-13T12:14:38;2.17;;;1.60;;
8466;SDS011;4270;48.148;11.648;2023-07-13T12:17:08;2.17;;;1.30;;
8466;SDS011;4270;48.148;11.648;2023-07-13T12:19:34;2.30;;;1.67;;
8466;SDS011;4270;48.148;11.648;2023-07-13T12:22:00;4.00;;;1.73;;
8466;SDS011;4270;48.148;11.648;2023-07-13T12:24:25;3.20;;;1.77;;
8466;SDS011;4270;48.148;11.648;2023-07-13T12:27:33;3.33;;;1.70;;
8466;SDS011;4270;48.148;11.648;2023-07-13T12:29:47;3.23;;;1.67;;
8466;SDS011;4270;48.148;11.648;2023-07-13T12:32:14;2.30;;;1.73;;
8466;SDS011;4270;48.148;11.648;2023-07-13T12:34:55;3.03;;;1.90;;
8466;SDS011;4270;48.148;11.648;2023-07-13T12:37:21;2.50;;;1.83;;
8466;SDS011;4270;48.148;11.648;2023-07-13T12:39:47;7.07;;;1.93;;
8466;SDS011;4270;48.148;11.648;2023-07-13T12:44:40;3.20;;;1.70;;
8466;SDS011;4270;48.148;11.648;2023-07-13T12:47:06;2.17;;;1.60;;
8466;SDS011;4270;48.148;11.648;2023-07-13T12:49:39;4.10;;;2.30;;
8466;SDS011;4270;48.148;11.648;2023-07-13T12:52:12;1.80;;;1.40;;
8466;SDS011;4270;48.148;11.648;2023-07-13T12:54:39;3.60;;;2.20;;
8466;SDS011;4270;48.148;11.648;2023-07-13T12:57:04;1.90;;;1.70;;
8466;SDS011;4270;48.148;11.648;2023-07-13T12:59:34;3.13;;;1.83;;
8466;SDS011;4270;48.148;11.648;2023-07-13T13:02:01;5.10;;;2.17;;
8466;SDS011;4270;48.148;11.648;2023-07-13T13:04:27;5.40;;;2.67;;
8466;SDS011;4270;48.148;11.648;2023-07-13T13:07:03;3.17;;;2.07;;
8466;SDS011;4270;48.148;11.648;2023-07-13T13:09:28;4.40;;;2.30;;
8466;SDS011;4270;48.148;11.648;2023-07-13T13:11:53;1.83;;;1.60;;
8466;SDS011;4270;48.148;11.648;2023-07-13T13:14:18;3.00;;;1.90;;
8466;SDS011;4270;48.148;11.648;2023-07-13T13:16:48;2.10;;;1.90;;
8466;SDS011;4270;48.148;11.648;2023-07-13T13:19:17;3.33;;;1.80;;
8466;SDS011;4270;48.148;11.648;2023-07-13T13:21:43;2.10;;;1.90;;
8466;SDS011;4270;48.148;11.648;2023-07-13T13:24:13;2.63;;;2.00;;
8466;SDS011;4270;48.148;11.648;2023-07-13T13:26:39;2.67;;;2.10;;
8466;SDS011;4270;48.148;11.648;2023-07-13T13:29:14;2.43;;;1.70;;
8466;SDS011;4270;48.148;11.648;2023-07-13T13:31:41;2.63;;;1.80;;
8466;SDS011;4270;48.148;11.648;2023-07-13T13:34:07;2.07;;;1.53;;
8466;SDS011;4270;48.148;11.648;2023-07-13T13:36:33;2.20;;;2.00;;
8466;SDS011;4270;48.148;11.648;2023-07-13T13:38:58;3.27;;;1.80;;
8466;SDS011;4270;48.148;11.648;2023-07-13T13:41:23;4.30;;;1.53;;
8466;SDS011;4270;48.148;11.648;2023-07-13T13:43:48;2.20;;;1.70;;
8466;SDS011;4270;48.148;11.648;2023-07-13T13:48:39;1.83;;;1.53;;
8466;SDS011;4270;48.148;11.648;2023-07-13T13:51:11;2.60;;;1.53;;
8466;SDS011;4270;48.148;11.648;2023-07-13T13:53:38;2.40;;;1.43;;
8466;SDS011;4270;48.148;11.648;2023-07-13T13:56:03;4.30;;;1.80;;
8466;SDS011;4270;48.148;11.648;2023-07-13T13:58:29;3.33;;;1.60;;
8466;SDS011;4270;48.148;11.648;2023-07-13T14:00:56;3.30;;;1.60;;
8466;SDS011;4270;48.148;11.648;2023-07-13T14:03:21;3.53;;;1.90;;
8466;SDS011;4270;48.148;11.648;2023-07-13T14:05:47;2.10;;;1.57;;
8466;SDS011;4270;48.148;11.648;2023-07-13T14:08:16;4.63;;;1.90;;
8466;SDS011;4270;48.148;11.648;2023-07-13T14:10:42;3.23;;;1.70;;
8466;SDS011;4270;48.148;11.648;2023-07-13T14:13:09;2.63;;;1.80;;
8466;SDS011;4270;48.148;11.648;2023-07-13T14:15:38;3.80;;;2.00;;
8466;SDS011;4270;48.148;11.648;2023-07-13T14:18:03;2.73;;;1.80;;
8466;SDS011;4270;48.148;11.648;2023-07-13T14:20:28;1.83;;;1.70;;
8466;SDS011;4270;48.148;11.648;2023-07-13T14:22:55;2.40;;;1.90;;
8466;SDS011;4270;48.148;11.648;2023-07-13T14:25:20;2.67;;;1.50;;
8466;SDS011;4270;48.148;11.648;2023-07-13T14:27:46;2.13;;;1.60;;
8466;SDS011;4270;48.148;11.648;2023-07-13T14:30:17;2.33;;;1.50;;
8466;SDS011;4270;48.148;11.648;2023-07-13T14:32:43;1.80;;;1.50;;
8466;SDS011;4270;48.148;11.648;2023-07-13T14:35:12;2.57;;;1.60;;
8466;SDS011;4270;48.148;11.648;2023-07-13T14:37:38;2.07;;;1.70;;
8466;SDS011;4270;48.148;11.648;2023-07-13T14:40:17;2.23;;;1.60;;
8466;SDS011;4270;48.148;11.648;2023-07-13T14:42:44;2.40;;;1.77;;
8466;SDS011;4270;48.148;11.648;2023-07-13T14:45:13;3.00;;;1.70;;
8466;SDS011;4270;48.148;11.648;2023-07-13T14:47:39;3.30;;;1.90;;
8466;SDS011;4270;48.148;11.648;2023-07-13T14:50:04;3.30;;;1.80;;
8466;SDS011;4270;48.148;11.648;2023-07-13T14:52:30;3.90;;;1.60;;
8466;SDS011;4270;48.148;11.648;2023-07-13T14:54:55;3.23;;;2.00;;
8466;SDS011;4270;48.148;11.648;2023-07-13T14:57:20;3.53;;;2.10;;
8466;SDS011;4270;48.148;11.648;2023-07-13T14:59:46;4.00;;;1.80;;
8466;SDS011;4270;48.148;11.648;2023-07-13T15:02:15;2.50;;;1.80;;
8466;SDS011;4270;48.148;11.648;2023-07-13T15:04:41;1.80;;;1.57;;
8466;SDS011;4270;48.148;11.648;2023-07-13T15:07:07;2.87;;;1.73;;
8466;SDS011;4270;48.148;11.648;2023-07-13T15:09:34;1.90;;;1.40;;
8466;SDS011;4270;48.148;11.648;2023-07-13T15:11:59;2.83;;;1.83;;
8466;SDS011;4270;48.148;11.648;2023-07-13T15:14:25;1.70;;;1.60;;
8466;SDS011;4270;48.148;11.648;2023-07-13T15:16:51;2.57;;;2.00;;
8466;SDS011;4270;48.148;11.648;2023-07-13T15:19:16;2.33;;;1.60;;
8466;SDS011;4270;48.148;11.648;2023-07-13T15:21:43;5.80;;;1.93;;
8466;SDS011;4270;48.148;11.648;2023-07-13T15:24:08;4.70;;;2.30;;